Terminal Aerodrome Forecast
Issued by NWS Greer, SC

Home | Current Version | Previous Version | Text Only | Print | Product List | Glossary On
Versions: 1 2 3 4 5 6 7 8 9 10 11 12 13 14 15 16 17 18 19 20 21 22 23 24 25 26 27 28 29 30 31 32 33 34 35 36 37 38 39 40 41 42 43 44
000
FTUS42 KGSP 270834 AAC
TAFAVL
TAF AMD
KAVL 270834Z 2709/2806 16003KT P6SM OVC005
     FM271400 31004KT P6SM BKN045
     FM271700 26005KT P6SM BKN060 PROB30 2718/2723 4SM TSRA BKN040CB
     FM272300 18006KT P6SM BKN060 PROB30 2723/2804 4SM TSRA
      BKN040CB=

USA.gov is the U.S. government's official web portal to all federal, state and local government web resources and services.